Startpagina
METAR-TAF:

METAR-TAF

Vliegvelden :

Aeroporto di Roma Fiumicino

Rome-Fiumicino, Italië

breedte: 41-48N, lengte: 012-14E, hoogte: 2 m

Actueel weer

Dit bericht is 18 minuten geleden gemaakt, om 09:50 UTC
Wind 4 kt uit het oostzuidoosten, variërend tussen het oosten en het zuiden
Temperatuur 12°C
Vochtigheid 62%
Druk 1024 hPa
Zicht 10 km of meer
Verspreide wolken op 3500 ft

METAR: LIRF 160950Z 12004KT 090V170 9999 SCT035 12/05 Q1024 NOSIG

Tijdstip: 11:08 (10:08 UTC)

Verwachting

Dit bericht is 5 uur en het 8 minuten geleden gemaakt, om 05:00 UTC
Verwachting geldig van 16 om 06 UTC tot 17 om 12 UTC
Wind 6 kt uit variabele richting
Zicht 10 km of meer
Verspreide wolken op 3000 ft
Wijzigt naar
van 16 om 08 UTC tot 16 om 11 UTC
Wind 12 kt uit het zuiden
Tijdelijke
van 17 om 06 UTC tot 17 om 12 UTC
regen

TAF: LIRF 160500Z 1606/1712 VRB06KT 9999 SCT030 BECMG 1608/1611 17012KT TEMPO 1706/1712 RA

Waarnemingen en weersverwachtingen van meer dan 4000 vliegvelden (METAR en TAF).

De beschikbare stations zijn de gele en rode punten op de kaart.

Ga met uw muis naar het station om de naam te zien.

Klik dan om waarnemingen en weersverwachtingen te zien.

kaart wijzigen: klik op de groene knoppen met een zwart kruis om in te zoomen, op de groene knop met een streepje om uit te zoomen of op de groene pijlen voor aangrenzende kaarten.


METAR-TAF: